Time;durP1;ratioP1;P1;durP2;ratioP2;P2;SDS_P1;SDS_P2;PMS_P1;PMS_P2;Temp;Humidity;BMP_temperature;BMP_pressure;BME280_temperature;BME280_humidity;BME280_pressure;Samples;Min_cycle;Max_cycle;Signal;HPM_P1;HPM_P2
2023/06/23 00:01:22;;;;;;;;;;;15.60;68.00;;;;;;5019107;28;20376;-77
2023/06/23 00:03:48;;;;;;;;;;;15.50;68.00;;;;;;5014504;28;19929;-79
2023/06/23 00:06:14;;;;;;;;;;;15.50;68.00;;;;;;5014387;28;19905;-78
2023/06/23 00:08:40;;;;;;;;;;;15.50;67.90;;;;;;5013280;28;20286;-78
2023/06/23 00:11:06;;;;;;;;;;;15.60;68.10;;;;;;4995602;28;19909;-80
2023/06/23 00:13:35;;;;;;;;;;;15.60;68.00;;;;;;5013256;28;19941;-80
2023/06/23 00:16:04;;;;;;;;;;;15.70;67.90;;;;;;5013075;28;19951;-81
2023/06/23 00:18:32;;;;;;;;;;;15.60;68.10;;;;;;5013154;28;19905;-79
2023/06/23 00:20:58;;;;;;;;;;;15.60;68.00;;;;;;4995416;28;19909;-80
2023/06/23 00:23:23;;;;;;;;;;;15.60;68.00;;;;;;4996156;28;19919;-78
2023/06/23 00:25:49;;;;;;;;;;;15.70;67.90;;;;;;5013454;28;19952;-79
2023/06/23 00:28:14;;;;;;;;;;;15.80;67.70;;;;;;5014216;28;19905;-78
2023/06/23 00:30:40;;;;;;;;;;;15.80;67.50;;;;;;5014660;28;19913;-79
2023/06/23 00:33:06;;;;;;;;;;;15.90;67.30;;;;;;5013330;28;20004;-82
2023/06/23 00:35:31;;;;;;;;;;;15.90;67.20;;;;;;4996397;28;19906;-78
2023/06/23 00:37:57;;;;;;;;;;;16.00;67.10;;;;;;5012995;28;20590;-79
2023/06/23 00:40:24;;;;;;;;;;;16.00;67.00;;;;;;5012932;28;20395;-77
2023/06/23 00:42:53;;;;;;;;;;;16.00;67.00;;;;;;4995743;28;19960;-80
2023/06/23 00:45:19;;;;;;;;;;;16.00;67.00;;;;;;5013516;28;19915;-80
2023/06/23 00:47:51;;;;;;;;;;;16.00;67.00;;;;;;5013966;28;20347;-80
2023/06/23 00:50:18;;;;;;;;;;;16.00;66.90;;;;;;5008460;28;19905;-78
2023/06/23 00:52:49;;;;;;;;;;;16.00;66.90;;;;;;5012547;28;19910;-78
2023/06/23 00:55:19;;;;;;;;;;;16.00;67.00;;;;;;5012937;28;19996;-80
2023/06/23 00:57:45;;;;;;;;;;;16.00;67.00;;;;;;5012572;28;19933;-78
2023/06/23 01:00:14;;;;;;;;;;;16.10;67.10;;;;;;5012731;28;19906;-79
2023/06/23 01:02:39;;;;;;;;;;;16.10;66.80;;;;;;5012597;28;19913;-77
2023/06/23 01:05:05;;;;;;;;;;;16.10;66.90;;;;;;5012497;28;19909;-77
2023/06/23 01:07:37;;;;;;;;;;;16.00;67.00;;;;;;5012525;28;20478;-78
2023/06/23 01:10:15;;;;;;;;;;;16.00;67.20;;;;;;5012485;28;19913;-77
2023/06/23 01:12:43;;;;;;;;;;;16.00;67.20;;;;;;4990682;28;19917;-80
2023/06/23 01:15:21;;;;;;;;;;;16.10;67.20;;;;;;5007129;28;20359;-78
2023/06/23 01:17:53;;;;;;;;;;;16.00;67.00;;;;;;5012445;28;19906;-78
2023/06/23 01:20:24;;;;;;;;;;;16.00;67.60;;;;;;5012310;28;19962;-80
2023/06/23 01:23:05;;;;;;;;;;;15.90;67.90;;;;;;5000061;28;19917;-78
2023/06/23 01:25:47;;;;;;;;;;;15.80;68.50;;;;;;5012287;28;19960;-78
2023/06/23 01:28:31;;;;;;;;;;;15.80;68.80;;;;;;5000423;28;19996;-78
2023/06/23 01:31:00;;;;;;;;;;;15.80;68.90;;;;;;5012487;28;19905;-78
2023/06/23 01:33:27;;;;;;;;;;;15.80;69.10;;;;;;5012250;28;19909;-77
2023/06/23 01:36:13;;;;;;;;;;;15.70;69.50;;;;;;5012524;28;19920;-79
2023/06/23 01:38:43;;;;;;;;;;;15.70;70.00;;;;;;5013558;28;20371;-78
2023/06/23 01:41:11;;;;;;;;;;;15.60;70.40;;;;;;5013435;28;19920;-79
2023/06/23 01:43:38;;;;;;;;;;;15.40;71.00;;;;;;5013820;28;19913;-78
2023/06/23 01:46:12;;;;;;;;;;;15.20;71.40;;;;;;5020105;28;20326;-79
2023/06/23 01:48:40;;;;;;;;;;;15.10;71.60;;;;;;5000059;28;19913;-79
2023/06/23 01:51:06;;;;;;;;;;;15.10;72.20;;;;;;5015731;28;19916;-77
2023/06/23 01:53:32;;;;;;;;;;;15.10;72.70;;;;;;5015960;28;20351;-80
2023/06/23 01:56:02;;;;;;;;;;;15.10;73.10;;;;;;5015546;28;19921;-78
2023/06/23 01:58:28;;;;;;;;;;;15.10;73.60;;;;;;5015395;28;19906;-79
2023/06/23 02:00:54;;;;;;;;;;;15.00;73.60;;;;;;4997960;28;20277;-80
2023/06/23 02:03:20;;;;;;;;;;;15.10;74.00;;;;;;5015475;28;19913;-78
2023/06/23 02:05:47;;;;;;;;;;;15.10;74.30;;;;;;5015446;28;19906;-78
2023/06/23 02:08:14;;;;;;;;;;;15.10;74.20;;;;;;5015813;28;19963;-78
2023/06/23 02:10:40;;;;;;;;;;;15.20;73.90;;;;;;4998167;28;20318;-78
2023/06/23 02:13:07;;;;;;;;;;;15.20;74.20;;;;;;4998698;28;19909;-78
2023/06/23 02:15:33;;;;;;;;;;;15.30;74.00;;;;;;5015169;28;19951;-78
2023/06/23 02:17:59;;;;;;;;;;;15.30;74.50;;;;;;5015675;28;19906;-78
2023/06/23 02:20:28;;;;;;;;;;;15.20;75.00;;;;;;5015400;28;19996;-76
2023/06/23 02:22:55;;;;;;;;;;;14.90;76.20;;;;;;5015144;28;19913;-78
2023/06/23 02:25:21;;;;;;;;;;;14.70;76.60;;;;;;5015052;28;19910;-79
2023/06/23 02:27:47;;;;;;;;;;;14.80;76.90;;;;;;5013987;28;19909;-80
2023/06/23 02:30:13;;;;;;;;;;;14.80;77.40;;;;;;5014937;28;19909;-78
2023/06/23 02:32:39;;;;;;;;;;;14.90;77.50;;;;;;5014674;28;19967;-77
2023/06/23 02:35:07;;;;;;;;;;;14.80;77.30;;;;;;5015226;28;19996;-79
2023/06/23 02:37:33;;;;;;;;;;;14.70;77.90;;;;;;5014732;28;19916;-78
2023/06/23 02:40:09;;;;;;;;;;;14.70;78.30;;;;;;4997382;28;19996;-77
2023/06/23 02:42:36;;;;;;;;;;;14.70;78.80;;;;;;5011801;28;20023;-78
2023/06/23 02:45:04;;;;;;;;;;;14.60;79.50;;;;;;4997402;28;19905;-78
2023/06/23 02:47:34;;;;;;;;;;;14.50;79.70;;;;;;5015039;28;19975;-78
2023/06/23 02:50:02;;;;;;;;;;;14.50;80.20;;;;;;5017593;28;19905;-78
2023/06/23 02:52:28;;;;;;;;;;;14.50;79.90;;;;;;5016642;28;19913;-78
2023/06/23 02:54:55;;;;;;;;;;;14.60;79.70;;;;;;5014796;28;19933;-79
2023/06/23 02:57:22;;;;;;;;;;;14.60;79.50;;;;;;5014629;28;20397;-77
2023/06/23 02:59:50;;;;;;;;;;;14.60;79.90;;;;;;5014522;28;19916;-78
2023/06/23 03:02:17;;;;;;;;;;;14.60;80.40;;;;;;4996993;28;19912;-78
2023/06/23 03:04:44;;;;;;;;;;;14.50;80.50;;;;;;5014361;28;19909;-79
2023/06/23 03:07:10;;;;;;;;;;;14.50;80.90;;;;;;5014338;28;20358;-78
2023/06/23 03:09:36;;;;;;;;;;;14.60;81.30;;;;;;5014230;28;20000;-78
2023/06/23 03:12:02;;;;;;;;;;;14.70;81.30;;;;;;5012760;28;19963;-79
2023/06/23 03:14:28;;;;;;;;;;;14.80;81.60;;;;;;4988988;28;20403;-78
2023/06/23 03:17:14;;;;;;;;;;;14.80;81.70;;;;;;5014027;28;20023;-76
2023/06/23 03:19:47;;;;;;;;;;;14.90;81.70;;;;;;5016046;28;19905;-77
2023/06/23 03:22:16;;;;;;;;;;;15.10;82.10;;;;;;5014458;28;19906;-78
2023/06/23 03:24:43;;;;;;;;;;;15.10;82.40;;;;;;5004078;28;19957;-77
2023/06/23 03:27:09;;;;;;;;;;;15.20;82.80;;;;;;4996198;28;19910;-77
2023/06/23 03:29:39;;;;;;;;;;;15.30;82.80;;;;;;5013902;28;19910;-76
2023/06/23 03:32:06;;;;;;;;;;;15.40;83.10;;;;;;5013638;28;19987;-78
2023/06/23 03:34:47;;;;;;;;;;;15.60;82.90;;;;;;4995769;28;20355;-77
2023/06/23 03:37:14;;;;;;;;;;;15.80;82.30;;;;;;5014484;28;19912;-76
2023/06/23 03:39:42;;;;;;;;;;;15.90;82.10;;;;;;5020208;28;20001;-77
2023/06/23 03:42:08;;;;;;;;;;;16.00;82.10;;;;;;5015346;28;19909;-76
2023/06/23 03:44:38;;;;;;;;;;;16.00;81.40;;;;;;4995810;28;20357;-77
2023/06/23 03:47:06;;;;;;;;;;;16.00;81.60;;;;;;5013614;28;20294;-78
2023/06/23 03:49:37;;;;;;;;;;;16.20;81.50;;;;;;5013439;28;19912;-77
2023/06/23 03:52:04;;;;;;;;;;;16.30;81.30;;;;;;4996210;28;20414;-77
2023/06/23 03:54:31;;;;;;;;;;;16.50;81.20;;;;;;5013639;28;19909;-78
2023/06/23 03:56:59;;;;;;;;;;;16.50;81.10;;;;;;5013898;28;19996;-80
2023/06/23 03:59:26;;;;;;;;;;;16.70;81.00;;;;;;5016215;28;20339;-78
2023/06/23 04:01:53;;;;;;;;;;;16.70;80.50;;;;;;5016406;28;20426;-80
2023/06/23 04:04:21;;;;;;;;;;;16.70;80.40;;;;;;4995639;28;19918;-78
2023/06/23 04:06:48;;;;;;;;;;;16.70;80.20;;;;;;5013108;28;19909;-78
2023/06/23 04:09:14;;;;;;;;;;;16.70;80.00;;;;;;5013326;28;19910;-78
2023/06/23 04:11:41;;;;;;;;;;;16.70;79.80;;;;;;5013196;28;19991;-78
2023/06/23 04:14:07;;;;;;;;;;;16.80;79.90;;;;;;4995506;28;19906;-78
2023/06/23 04:16:35;;;;;;;;;;;16.70;79.40;;;;;;5013131;28;19909;-77
2023/06/23 04:19:01;;;;;;;;;;;16.70;79.30;;;;;;5012876;28;20363;-77
2023/06/23 04:21:27;;;;;;;;;;;16.70;79.60;;;;;;5012957;28;19911;-78
2023/06/23 04:23:53;;;;;;;;;;;16.50;79.60;;;;;;5012851;28;20302;-77
2023/06/23 04:26:19;;;;;;;;;;;16.30;80.00;;;;;;5013440;28;19906;-78
2023/06/23 04:28:45;;;;;;;;;;;16.20;80.30;;;;;;5013805;28;20330;-78
2023/06/23 04:31:13;;;;;;;;;;;16.10;80.80;;;;;;5013613;28;19913;-79
2023/06/23 04:33:38;;;;;;;;;;;15.80;81.90;;;;;;5012972;28;19909;-79
2023/06/23 04:36:24;;;;;;;;;;;15.80;82.60;;;;;;5012528;28;19956;-78
2023/06/23 04:38:57;;;;;;;;;;;15.70;82.60;;;;;;5012764;28;19992;-80
2023/06/23 04:41:24;;;;;;;;;;;15.50;82.60;;;;;;5013324;28;19905;-78
2023/06/23 04:43:51;;;;;;;;;;;15.50;83.10;;;;;;5012598;28;19949;-79
2023/06/23 04:46:25;;;;;;;;;;;15.50;83.70;;;;;;5017059;28;20008;-78
2023/06/23 04:48:53;;;;;;;;;;;15.50;84.30;;;;;;5016664;28;19906;-78
2023/06/23 04:51:21;;;;;;;;;;;15.60;84.70;;;;;;4995041;28;20329;-78
2023/06/23 04:53:49;;;;;;;;;;;15.60;84.80;;;;;;5012804;28;19905;-78
2023/06/23 04:56:18;;;;;;;;;;;15.70;85.00;;;;;;4995590;28;19921;-80
2023/06/23 04:58:45;;;;;;;;;;;15.90;85.20;;;;;;5012876;28;20000;-78
2023/06/23 05:01:12;;;;;;;;;;;15.90;85.30;;;;;;5013132;28;20494;-77
2023/06/23 05:03:38;;;;;;;;;;;16.00;85.30;;;;;;5012497;28;19921;-78
2023/06/23 05:06:04;;;;;;;;;;;16.00;85.10;;;;;;4995243;28;19913;-79
2023/06/23 05:08:31;;;;;;;;;;;16.00;85.10;;;;;;5012311;28;20244;-79
2023/06/23 05:10:59;;;;;;;;;;;16.00;85.50;;;;;;5011664;28;19951;-78
2023/06/23 05:13:28;;;;;;;;;;;16.10;85.80;;;;;;5010540;28;20290;-80
2023/06/23 05:15:53;;;;;;;;;;;16.30;86.00;;;;;;5014691;28;19909;-79
2023/06/23 05:18:19;;;;;;;;;;;16.40;85.60;;;;;;5016357;28;19912;-79
2023/06/23 05:20:46;;;;;;;;;;;16.60;85.30;;;;;;5015662;28;19913;-78
2023/06/23 05:23:13;;;;;;;;;;;16.70;85.00;;;;;;5007553;28;19987;-78
2023/06/23 05:25:40;;;;;;;;;;;16.70;85.00;;;;;;4998401;28;20271;-77
2023/06/23 05:28:06;;;;;;;;;;;16.80;85.10;;;;;;5015056;28;19949;-79
2023/06/23 05:30:34;;;;;;;;;;;16.90;84.90;;;;;;5016033;28;19905;-77
2023/06/23 05:33:01;;;;;;;;;;;17.10;84.90;;;;;;5015871;28;19999;-78
2023/06/23 05:35:28;;;;;;;;;;;17.40;84.80;;;;;;5017890;28;19967;-78
2023/06/23 05:37:54;;;;;;;;;;;17.60;84.30;;;;;;5016586;28;19988;-77
2023/06/23 05:40:20;;;;;;;;;;;18.00;83.90;;;;;;5015751;28;19912;-80
2023/06/23 05:42:46;;;;;;;;;;;18.20;83.20;;;;;;5015924;28;19913;-78
2023/06/23 05:45:12;;;;;;;;;;;18.40;82.60;;;;;;5015913;28;19914;-80
2023/06/23 05:47:42;;;;;;;;;;;18.40;82.20;;;;;;5015467;28;20436;-76
2023/06/23 05:50:14;;;;;;;;;;;18.30;81.70;;;;;;4997036;28;19916;-77
2023/06/23 05:52:44;;;;;;;;;;;18.10;81.40;;;;;;5015687;28;19952;-76
2023/06/23 05:55:11;;;;;;;;;;;17.90;82.00;;;;;;5015415;28;19913;-76
2023/06/23 05:57:38;;;;;;;;;;;17.70;82.50;;;;;;5015525;28;19944;-77
2023/06/23 06:00:11;;;;;;;;;;;17.60;83.00;;;;;;5015677;28;19924;-77
2023/06/23 06:02:38;;;;;;;;;;;17.40;83.60;;;;;;5015610;28;19906;-76
2023/06/23 06:05:07;;;;;;;;;;;17.40;84.20;;;;;;5015293;28;20405;-76
2023/06/23 06:07:34;;;;;;;;;;;17.40;84.80;;;;;;5015503;28;20018;-77
2023/06/23 06:10:01;;;;;;;;;;;17.50;84.60;;;;;;5015862;28;19905;-75
2023/06/23 06:12:27;;;;;;;;;;;17.60;84.50;;;;;;5015717;28;19905;-75
2023/06/23 06:14:54;;;;;;;;;;;17.40;84.90;;;;;;4997611;28;20379;-76
2023/06/23 06:17:20;;;;;;;;;;;17.30;85.70;;;;;;5015520;28;19905;-76
2023/06/23 06:19:47;;;;;;;;;;;17.30;85.60;;;;;;5015378;28;20278;-76
2023/06/23 06:22:14;;;;;;;;;;;17.20;85.90;;;;;;5014679;28;20333;-76
2023/06/23 06:24:40;;;;;;;;;;;17.00;85.90;;;;;;5014917;28;19919;-77
2023/06/23 06:27:07;;;;;;;;;;;16.50;88.80;;;;;;4996571;28;19949;-77
2023/06/23 06:29:35;;;;;;;;;;;16.20;90.30;;;;;;5015310;28;19906;-78
2023/06/23 06:32:02;;;;;;;;;;;16.10;90.90;;;;;;5015100;28;19916;-76
2023/06/23 06:34:30;;;;;;;;;;;16.10;91.50;;;;;;5016563;28;19996;-77
2023/06/23 06:36:56;;;;;;;;;;;16.20;91.60;;;;;;4999121;28;19983;-76
2023/06/23 06:39:22;;;;;;;;;;;16.20;91.80;;;;;;5014743;28;19905;-76
2023/06/23 06:41:49;;;;;;;;;;;16.30;92.00;;;;;;5014328;28;19913;-77
2023/06/23 06:44:15;;;;;;;;;;;16.30;91.90;;;;;;5014998;28;19925;-77
2023/06/23 06:46:43;;;;;;;;;;;16.30;92.20;;;;;;5014723;28;19905;-78
2023/06/23 06:49:09;;;;;;;;;;;16.20;92.60;;;;;;5014467;28;19956;-77
2023/06/23 06:51:36;;;;;;;;;;;16.10;92.80;;;;;;4996717;28;20382;-77
2023/06/23 06:54:02;;;;;;;;;;;16.10;93.20;;;;;;5014541;28;19905;-78
2023/06/23 06:56:28;;;;;;;;;;;16.00;93.10;;;;;;5013666;28;19921;-76
2023/06/23 06:58:53;;;;;;;;;;;16.00;93.70;;;;;;4997113;28;19929;-77
2023/06/23 07:01:19;;;;;;;;;;;16.00;93.70;;;;;;4997068;28;19909;-79
2023/06/23 07:03:45;;;;;;;;;;;15.90;93.90;;;;;;4996285;28;19917;-77
2023/06/23 07:06:12;;;;;;;;;;;15.80;94.50;;;;;;5014383;28;20266;-77
2023/06/23 07:08:39;;;;;;;;;;;15.80;95.00;;;;;;5014261;28;20342;-78
2023/06/23 07:11:04;;;;;;;;;;;15.90;95.40;;;;;;5014322;28;19905;-76
2023/06/23 07:13:30;;;;;;;;;;;16.10;95.90;;;;;;4995925;28;19950;-77
2023/06/23 07:15:56;;;;;;;;;;;16.10;96.20;;;;;;5014716;28;19906;-76
2023/06/23 07:18:23;;;;;;;;;;;16.30;96.30;;;;;;5014003;28;19992;-75
2023/06/23 07:20:49;;;;;;;;;;;16.40;96.10;;;;;;5013786;28;19906;-78
2023/06/23 07:23:14;;;;;;;;;;;16.50;96.30;;;;;;5013986;28;20333;-78
2023/06/23 07:25:40;;;;;;;;;;;16.50;96.40;;;;;;5014427;28;19952;-76
2023/06/23 07:28:06;;;;;;;;;;;16.50;96.70;;;;;;5015775;28;19952;-76
2023/06/23 07:30:31;;;;;;;;;;;16.50;96.80;;;;;;5015024;28;19905;-77
2023/06/23 07:32:57;;;;;;;;;;;16.40;97.00;;;;;;4995692;28;19944;-75
2023/06/23 07:35:23;;;;;;;;;;;16.50;97.40;;;;;;5013322;28;19909;-76
2023/06/23 07:37:49;;;;;;;;;;;16.40;97.70;;;;;;4995763;28;19981;-76
2023/06/23 07:40:14;;;;;;;;;;;16.40;98.20;;;;;;4995761;28;19906;-77
2023/06/23 07:42:40;;;;;;;;;;;16.60;98.50;;;;;;5013280;28;19905;-78
2023/06/23 07:45:06;;;;;;;;;;;16.70;98.70;;;;;;5013680;28;19909;-76
2023/06/23 07:47:32;;;;;;;;;;;16.70;98.60;;;;;;5013512;28;19928;-77
2023/06/23 07:49:58;;;;;;;;;;;16.80;98.70;;;;;;5013129;28;19917;-78
2023/06/23 07:52:23;;;;;;;;;;;16.80;98.90;;;;;;5013536;28;20300;-75
2023/06/23 07:54:49;;;;;;;;;;;16.80;99.10;;;;;;5013067;28;20451;-76
2023/06/23 07:57:14;;;;;;;;;;;16.90;99.30;;;;;;5013154;28;19921;-76
2023/06/23 07:59:40;;;;;;;;;;;16.90;99.20;;;;;;5013169;28;19941;-76
2023/06/23 08:02:06;;;;;;;;;;;16.90;99.30;;;;;;5012871;28;20004;-78
2023/06/23 08:04:32;;;;;;;;;;;17.00;99.40;;;;;;4994979;28;19917;-77
2023/06/23 08:06:58;;;;;;;;;;;17.10;99.70;;;;;;4995337;28;19925;-76
2023/06/23 08:09:23;;;;;;;;;;;17.20;99.90;;;;;;5013415;28;20526;-77
2023/06/23 08:11:49;;;;;;;;;;;17.30;99.90;;;;;;4995475;28;19912;-78
2023/06/23 08:14:15;;;;;;;;;;;17.40;99.90;;;;;;5012211;28;19909;-77
2023/06/23 08:16:40;;;;;;;;;;;17.40;99.90;;;;;;5014637;28;19905;-78
2023/06/23 08:19:06;;;;;;;;;;;17.40;99.90;;;;;;5012994;28;19905;-77
2023/06/23 08:21:34;;;;;;;;;;;17.20;99.90;;;;;;4994564;28;19909;-78
2023/06/23 08:23:59;;;;;;;;;;;17.20;99.90;;;;;;5012711;28;19914;-78
2023/06/23 08:26:25;;;;;;;;;;;17.30;99.90;;;;;;5013148;28;19910;-77
2023/06/23 08:28:51;;;;;;;;;;;17.30;99.90;;;;;;5013055;28;19928;-78
2023/06/23 08:31:17;;;;;;;;;;;17.30;99.90;;;;;;5012668;28;19905;-78
2023/06/23 08:33:43;;;;;;;;;;;17.10;99.90;;;;;;5012530;28;19912;-77
2023/06/23 08:36:09;;;;;;;;;;;17.00;99.90;;;;;;4981594;28;20287;-80
2023/06/23 08:38:34;;;;;;;;;;;17.00;99.90;;;;;;5012172;28;19909;-78
2023/06/23 08:41:00;;;;;;;;;;;17.00;99.90;;;;;;5012628;28;19909;-77
2023/06/23 08:43:26;;;;;;;;;;;16.90;99.90;;;;;;5013275;28;19909;-77
2023/06/23 08:45:56;;;;;;;;;;;16.90;99.90;;;;;;5013041;28;20026;-77
2023/06/23 08:48:26;;;;;;;;;;;16.90;99.90;;;;;;4995788;28;19913;-77
2023/06/23 08:50:53;;;;;;;;;;;16.90;99.90;;;;;;5012437;28;20340;-77
2023/06/23 08:53:20;;;;;;;;;;;16.80;99.90;;;;;;5013120;28;19913;-78
2023/06/23 08:55:45;;;;;;;;;;;16.90;99.90;;;;;;5012318;28;20602;-77
2023/06/23 08:58:11;;;;;;;;;;;16.90;99.90;;;;;;5012341;28;19909;-76
2023/06/23 09:00:37;;;;;;;;;;;16.80;99.90;;;;;;5012380;28;20347;-77
2023/06/23 09:03:04;;;;;;;;;;;16.90;99.90;;;;;;5012426;28;19917;-76
2023/06/23 09:05:30;;;;;;;;;;;16.70;99.90;;;;;;5012284;28;20011;-78
2023/06/23 09:07:55;;;;;;;;;;;16.80;99.90;;;;;;4994445;28;20343;-77
2023/06/23 09:10:21;;;;;;;;;;;16.80;99.90;;;;;;5012446;28;20355;-78
2023/06/23 09:13:05;;;;;;;;;;;16.80;99.90;;;;;;5011717;28;19909;-79
2023/06/23 09:15:31;;;;;;;;;;;16.80;99.90;;;;;;5012786;28;20424;-78
2023/06/23 09:17:57;;;;;;;;;;;16.70;99.90;;;;;;4994813;28;19996;-78
2023/06/23 09:20:23;;;;;;;;;;;16.70;99.90;;;;;;5012902;28;20008;-77
2023/06/23 09:22:49;;;;;;;;;;;16.80;99.90;;;;;;5021727;28;19913;-78
2023/06/23 09:25:35;;;;;;;;;;;16.70;99.90;;;;;;5018478;28;19913;-77
2023/06/23 09:28:00;;;;;;;;;;;16.80;99.90;;;;;;5012324;28;19905;-77
2023/06/23 09:30:33;;;;;;;;;;;16.80;99.90;;;;;;5011561;28;20343;-79
2023/06/23 09:32:59;;;;;;;;;;;16.90;99.90;;;;;;5012105;28;19948;-78
2023/06/23 09:35:25;;;;;;;;;;;16.90;99.90;;;;;;5012044;28;19910;-76
2023/06/23 09:37:50;;;;;;;;;;;16.80;99.90;;;;;;4994276;28;19959;-78
2023/06/23 09:40:23;;;;;;;;;;;16.70;99.90;;;;;;5011981;28;19945;-77
2023/06/23 09:42:49;;;;;;;;;;;16.70;99.90;;;;;;5011846;28;19913;-76
2023/06/23 09:45:17;;;;;;;;;;;16.70;99.90;;;;;;5011983;28;19920;-78
2023/06/23 09:47:43;;;;;;;;;;;16.80;99.90;;;;;;5011001;28;19920;-78
2023/06/23 09:50:16;;;;;;;;;;;16.90;99.90;;;;;;5011817;28;19905;-77
2023/06/23 09:52:41;;;;;;;;;;;17.00;99.90;;;;;;5011956;28;19906;-78
2023/06/23 09:55:07;;;;;;;;;;;17.20;99.90;;;;;;5012545;28;19913;-77
2023/06/23 09:57:33;;;;;;;;;;;17.10;99.90;;;;;;5012196;28;20307;-78
2023/06/23 10:00:00;;;;;;;;;;;17.10;99.90;;;;;;5012011;28;19909;-77
2023/06/23 10:02:29;;;;;;;;;;;17.10;99.90;;;;;;5013077;28;20310;-77
2023/06/23 10:04:58;;;;;;;;;;;17.10;99.90;;;;;;4997958;28;20004;-78
2023/06/23 10:07:25;;;;;;;;;;;17.10;99.90;;;;;;4998230;28;19909;-76
2023/06/23 10:09:51;;;;;;;;;;;17.10;99.90;;;;;;5015500;28;19951;-78
2023/06/23 10:12:22;;;;;;;;;;;17.10;99.90;;;;;;5015257;28;19940;-77
2023/06/23 10:14:48;;;;;;;;;;;17.10;99.90;;;;;;5014982;28;19992;-76
2023/06/23 10:17:14;;;;;;;;;;;17.20;99.90;;;;;;5015062;28;20373;-78
2023/06/23 10:19:40;;;;;;;;;;;17.30;99.90;;;;;;5014688;28;20050;-77
2023/06/23 10:22:06;;;;;;;;;;;17.20;99.90;;;;;;5014879;28;19905;-78
2023/06/23 10:24:34;;;;;;;;;;;17.20;99.90;;;;;;4997205;28;19918;-78
2023/06/23 10:27:01;;;;;;;;;;;17.10;99.90;;;;;;5015048;28;19906;-78
2023/06/23 10:29:27;;;;;;;;;;;17.20;99.90;;;;;;5015198;28;19909;-77
2023/06/23 10:31:56;;;;;;;;;;;17.40;99.90;;;;;;5015091;28;19955;-77
2023/06/23 10:34:22;;;;;;;;;;;17.40;99.90;;;;;;5015099;28;19909;-77
2023/06/23 10:36:50;;;;;;;;;;;17.40;99.90;;;;;;5014408;28;20275;-77
2023/06/23 10:39:16;;;;;;;;;;;17.40;99.90;;;;;;5014811;28;19956;-76
2023/06/23 10:41:45;;;;;;;;;;;17.40;99.90;;;;;;5014921;28;19905;-77
2023/06/23 10:44:11;;;;;;;;;;;17.50;99.90;;;;;;5015180;28;19913;-77
2023/06/23 10:46:38;;;;;;;;;;;17.40;99.90;;;;;;5014707;28;19906;-77
2023/06/23 10:49:04;;;;;;;;;;;17.40;99.90;;;;;;5014672;28;19939;-78
2023/06/23 10:51:30;;;;;;;;;;;17.50;99.90;;;;;;5014931;28;19952;-77
2023/06/23 10:53:58;;;;;;;;;;;17.70;99.90;;;;;;5013842;28;19913;-78
2023/06/23 10:56:31;;;;;;;;;;;18.10;99.90;;;;;;5013901;28;19960;-78
2023/06/23 10:58:57;;;;;;;;;;;18.40;99.90;;;;;;5014203;28;19909;-78
2023/06/23 11:01:22;;;;;;;;;;;18.80;99.90;;;;;;5014468;28;19912;-78
2023/06/23 11:03:52;;;;;;;;;;;19.00;99.90;;;;;;4996906;28;19924;-78
2023/06/23 11:06:26;;;;;;;;;;;19.40;99.90;;;;;;4996964;28;19913;-78
2023/06/23 11:08:52;;;;;;;;;;;19.40;99.90;;;;;;5014881;28;19956;-77
2023/06/23 11:11:29;;;;;;;;;;;19.60;99.90;;;;;;5014012;28;19909;-78
2023/06/23 11:13:56;;;;;;;;;;;19.60;99.90;;;;;;5016303;28;19988;-77
2023/06/23 11:16:34;;;;;;;;;;;19.80;99.90;;;;;;5019727;28;19912;-78
2023/06/23 11:19:02;;;;;;;;;;;20.00;99.90;;;;;;5002319;28;19906;-77
2023/06/23 11:21:28;;;;;;;;;;;20.00;99.90;;;;;;5014680;28;19948;-77
2023/06/23 11:24:13;;;;;;;;;;;19.90;99.90;;;;;;4996724;28;19924;-75
2023/06/23 11:26:43;;;;;;;;;;;19.90;99.90;;;;;;5014269;28;19905;-78
2023/06/23 11:29:14;;;;;;;;;;;19.70;99.90;;;;;;5013341;28;20425;-79
2023/06/23 11:31:58;;;;;;;;;;;19.50;99.90;;;;;;5013936;28;20349;-76
2023/06/23 11:34:25;;;;;;;;;;;19.70;99.90;;;;;;5013833;28;19995;-79
2023/06/23 11:36:51;;;;;;;;;;;19.90;99.90;;;;;;5019264;28;19906;-77
2023/06/23 11:39:16;;;;;;;;;;;20.10;99.90;;;;;;4999704;28;19905;-78
2023/06/23 11:41:43;;;;;;;;;;;20.30;99.90;;;;;;5013937;28;19905;-78
2023/06/23 11:44:10;;;;;;;;;;;20.40;99.90;;;;;;5013227;28;19976;-78
2023/06/23 11:46:36;;;;;;;;;;;20.50;99.90;;;;;;5013980;28;19941;-79
2023/06/23 11:49:11;;;;;;;;;;;20.80;99.90;;;;;;4995971;28;19943;-77
2023/06/23 11:51:37;;;;;;;;;;;20.90;99.90;;;;;;5013763;28;19992;-78
2023/06/23 11:54:02;;;;;;;;;;;20.70;99.40;;;;;;5013614;28;19949;-77
2023/06/23 11:56:28;;;;;;;;;;;20.60;99.30;;;;;;5012978;28;20001;-76
2023/06/23 11:58:57;;;;;;;;;;;20.40;99.30;;;;;;5013392;28;19910;-77
2023/06/23 12:01:24;;;;;;;;;;;20.60;99.50;;;;;;5012997;28;20025;-78
2023/06/23 12:03:50;;;;;;;;;;;20.50;99.10;;;;;;5013219;28;20383;-78
2023/06/23 12:06:17;;;;;;;;;;;20.30;99.30;;;;;;4995418;28;19909;-77
2023/06/23 12:08:44;;;;;;;;;;;20.20;99.40;;;;;;4995341;28;19932;-78
2023/06/23 12:11:09;;;;;;;;;;;20.10;99.50;;;;;;5013285;28;19905;-75
2023/06/23 12:13:38;;;;;;;;;;;20.10;99.70;;;;;;5013024;28;20007;-77
2023/06/23 12:16:05;;;;;;;;;;;20.10;99.50;;;;;;5012593;28;19988;-76
2023/06/23 12:18:32;;;;;;;;;;;20.30;99.70;;;;;;5013197;28;20107;-76
2023/06/23 12:21:00;;;;;;;;;;;20.60;99.40;;;;;;5012943;28;19912;-77
2023/06/23 12:23:30;;;;;;;;;;;20.60;98.60;;;;;;5012895;28;19919;-77
2023/06/23 12:25:57;;;;;;;;;;;20.60;98.60;;;;;;5011789;28;19905;-76
2023/06/23 12:28:26;;;;;;;;;;;20.60;98.40;;;;;;4995587;28;20244;-77
2023/06/23 12:30:52;;;;;;;;;;;20.70;98.30;;;;;;5015442;28;19980;-77
2023/06/23 12:33:27;;;;;;;;;;;20.80;98.10;;;;;;5014252;28;19956;-77
2023/06/23 12:36:00;;;;;;;;;;;20.90;98.00;;;;;;5012725;28;19909;-77
2023/06/23 12:38:26;;;;;;;;;;;20.90;97.40;;;;;;5012735;28;19905;-78
2023/06/23 12:40:52;;;;;;;;;;;20.70;97.40;;;;;;5012689;28;20064;-76
2023/06/23 12:43:19;;;;;;;;;;;20.80;97.70;;;;;;5012566;28;20016;-77
2023/06/23 12:45:53;;;;;;;;;;;20.90;97.70;;;;;;5011952;28;20223;-77
2023/06/23 12:48:23;;;;;;;;;;;21.00;97.20;;;;;;5012969;28;19913;-77
2023/06/23 12:50:52;;;;;;;;;;;20.90;97.10;;;;;;5012574;28;19916;-76
2023/06/23 12:53:18;;;;;;;;;;;21.10;97.10;;;;;;5012382;28;19917;-76
2023/06/23 12:55:45;;;;;;;;;;;21.20;96.50;;;;;;5011889;28;19905;-78
2023/06/23 12:58:10;;;;;;;;;;;21.10;96.20;;;;;;5012165;28;19913;-77
2023/06/23 13:00:36;;;;;;;;;;;21.00;96.00;;;;;;5011868;28;19920;-76
2023/06/23 13:03:03;;;;;;;;;;;20.90;96.20;;;;;;5012372;28;19963;-75
2023/06/23 13:05:30;;;;;;;;;;;20.80;96.40;;;;;;5012588;28;19920;-77
2023/06/23 13:07:56;;;;;;;;;;;20.90;96.50;;;;;;5012513;28;19944;-78
2023/06/23 13:10:22;;;;;;;;;;;20.90;96.50;;;;;;4995160;28;19977;-77
2023/06/23 13:12:47;;;;;;;;;;;21.00;96.30;;;;;;5012992;28;20009;-76
2023/06/23 13:15:13;;;;;;;;;;;20.80;96.00;;;;;;5013265;28;19909;-77
2023/06/23 13:17:39;;;;;;;;;;;20.60;96.30;;;;;;5012537;28;20260;-76
2023/06/23 13:20:06;;;;;;;;;;;20.60;96.50;;;;;;4999116;28;19909;-76
2023/06/23 13:22:32;;;;;;;;;;;20.70;96.50;;;;;;5013724;28;19905;-77
2023/06/23 13:24:58;;;;;;;;;;;21.00;96.50;;;;;;5011991;28;19920;-77
2023/06/23 13:27:24;;;;;;;;;;;21.30;96.10;;;;;;4994589;28;20362;-78
2023/06/23 13:29:49;;;;;;;;;;;21.40;95.80;;;;;;5012307;28;19928;-77
2023/06/23 13:32:18;;;;;;;;;;;21.30;95.40;;;;;;5011673;28;19905;-77
2023/06/23 13:34:44;;;;;;;;;;;21.10;95.40;;;;;;5011636;28;20256;-76
2023/06/23 13:37:09;;;;;;;;;;;21.10;95.50;;;;;;5014675;28;19912;-79
2023/06/23 13:39:35;;;;;;;;;;;21.10;95.60;;;;;;5016265;28;19909;-76
2023/06/23 13:42:01;;;;;;;;;;;21.20;95.20;;;;;;4998575;28;19928;-76
2023/06/23 13:44:27;;;;;;;;;;;21.50;95.30;;;;;;5017024;28;19920;-76
2023/06/23 13:46:53;;;;;;;;;;;22.20;95.20;;;;;;5017568;28;19905;-77
2023/06/23 13:49:19;;;;;;;;;;;22.50;94.00;;;;;;5019137;28;19916;-77
2023/06/23 13:51:44;;;;;;;;;;;22.60;93.00;;;;;;5017431;28;19921;-78
2023/06/23 13:54:10;;;;;;;;;;;23.10;93.30;;;;;;5018869;28;19909;-77
2023/06/23 13:56:36;;;;;;;;;;;24.10;93.20;;;;;;5015339;28;19917;-77
2023/06/23 13:59:02;;;;;;;;;;;25.20;92.40;;;;;;5015461;28;19905;-79
2023/06/23 14:01:28;;;;;;;;;;;25.60;90.00;;;;;;4997447;28;20000;-77
2023/06/23 14:03:53;;;;;;;;;;;24.80;86.50;;;;;;4997808;28;19921;-76
2023/06/23 14:06:19;;;;;;;;;;;23.80;87.00;;;;;;5015719;28;19906;-78
2023/06/23 14:08:45;;;;;;;;;;;23.40;88.40;;;;;;5015415;28;19940;-78
2023/06/23 14:11:11;;;;;;;;;;;23.30;89.00;;;;;;5015329;28;19959;-77
2023/06/23 14:13:36;;;;;;;;;;;23.70;89.80;;;;;;4997150;28;19905;-76
2023/06/23 14:16:02;;;;;;;;;;;24.40;89.60;;;;;;5014769;28;19915;-77
2023/06/23 14:18:28;;;;;;;;;;;24.50;88.00;;;;;;5015061;28;19924;-78